createdAt,value
2023-01-25T00:00:06.871Z,10.57
2023-01-25T00:02:33.870Z,11.17
2023-01-25T00:05:00.786Z,10.80
2023-01-25T00:07:27.713Z,10.80
2023-01-25T00:09:54.696Z,11.50
2023-01-25T00:12:21.555Z,11.37
2023-01-25T00:14:48.482Z,12.50
2023-01-25T00:17:15.449Z,12.03
2023-01-25T00:19:42.424Z,11.90
2023-01-25T00:22:09.337Z,11.23
2023-01-25T00:24:36.345Z,11.13
2023-01-25T00:27:03.936Z,11.43
2023-01-25T00:29:30.838Z,11.13
2023-01-25T00:31:57.902Z,10.97
2023-01-25T00:34:24.921Z,11.20
2023-01-25T00:36:57.090Z,11.43
2023-01-25T00:39:26.335Z,11.90
2023-01-25T00:41:53.458Z,11.47
2023-01-25T00:44:20.446Z,10.67
2023-01-25T00:46:47.750Z,10.53
2023-01-25T00:49:23.355Z,10.87
2023-01-25T00:51:51.244Z,10.90
2023-01-25T00:54:18.624Z,10.60
2023-01-25T00:56:46.113Z,10.70
2023-01-25T00:59:14.008Z,10.30
2023-01-25T01:01:42.115Z,10.07
2023-01-25T01:04:09.165Z,9.47
2023-01-25T01:06:40.002Z,10.10
2023-01-25T01:09:11.661Z,10.83
2023-01-25T01:11:38.633Z,11.23
2023-01-25T01:14:05.541Z,10.87
2023-01-25T01:16:32.647Z,10.70
2023-01-25T01:18:59.660Z,10.00
2023-01-25T01:21:26.598Z,10.90
2023-01-25T01:23:54.990Z,10.30
2023-01-25T01:26:22.240Z,10.43
2023-01-25T01:28:49.292Z,10.63
2023-01-25T01:31:23.404Z,10.80
2023-01-25T01:33:55.989Z,10.03
2023-01-25T01:36:25.994Z,9.90
2023-01-25T01:38:53.019Z,10.40
2023-01-25T01:41:20.405Z,9.93
2023-01-25T01:43:47.955Z,10.50
2023-01-25T01:46:38.556Z,10.00
2023-01-25T01:49:13.844Z,11.10
2023-01-25T01:51:49.658Z,10.00
2023-01-25T01:54:19.286Z,11.07
2023-01-25T01:56:59.244Z,10.50
2023-01-25T01:59:31.608Z,10.40
2023-01-25T02:01:58.525Z,10.53
2023-01-25T02:04:27.888Z,10.83
2023-01-25T02:07:08.044Z,10.23
2023-01-25T02:09:36.534Z,10.40
2023-01-25T02:12:06.227Z,10.80
2023-01-25T02:14:34.537Z,10.70
2023-01-25T02:17:01.569Z,9.97
2023-01-25T02:19:57.367Z,11.00
2023-01-25T02:22:31.480Z,10.67
2023-01-25T02:25:13.343Z,9.73
2023-01-25T02:27:45.890Z,10.40
2023-01-25T02:30:13.209Z,10.00
2023-01-25T02:32:40.110Z,10.10
2023-01-25T02:35:08.052Z,9.97
2023-01-25T02:37:35.425Z,11.53
2023-01-25T02:40:02.307Z,10.80
2023-01-25T02:42:32.043Z,11.03
2023-01-25T02:44:59.068Z,10.30
2023-01-25T02:47:25.915Z,10.60
2023-01-25T02:49:52.761Z,10.23
2023-01-25T02:52:19.652Z,10.20
2023-01-25T02:54:46.530Z,11.40
2023-01-25T02:57:13.545Z,10.67
2023-01-25T02:59:40.451Z,10.83
2023-01-25T03:02:07.997Z,10.83
2023-01-25T03:04:34.853Z,11.17
2023-01-25T03:07:01.788Z,11.00
2023-01-25T03:09:28.753Z,11.37
2023-01-25T03:11:55.589Z,11.10
2023-01-25T03:14:22.480Z,11.50
2023-01-25T03:16:49.587Z,10.60
2023-01-25T03:19:16.697Z,11.30
2023-01-25T03:21:43.661Z,11.70
2023-01-25T03:24:11.550Z,10.60
2023-01-25T03:26:58.481Z,11.33
2023-01-25T03:29:25.484Z,11.33
2023-01-25T03:31:52.434Z,11.30
2023-01-25T03:34:19.428Z,9.90
2023-01-25T03:36:46.384Z,9.90
2023-01-25T03:39:13.310Z,10.47
2023-01-25T03:41:40.250Z,11.37
2023-01-25T03:44:07.112Z,11.90
2023-01-25T03:46:33.991Z,12.90
2023-01-25T03:49:00.839Z,12.50
2023-01-25T03:51:27.713Z,12.97
2023-01-25T03:53:54.602Z,12.20
2023-01-25T03:56:21.504Z,11.10
2023-01-25T03:58:48.427Z,11.70
2023-01-25T04:01:15.401Z,12.13
2023-01-25T04:03:42.351Z,11.83
2023-01-25T04:06:09.510Z,12.77
2023-01-25T04:08:37.673Z,11.50
2023-01-25T04:11:09.580Z,11.80
2023-01-25T04:13:37.974Z,11.77
2023-01-25T04:16:06.725Z,11.20
2023-01-25T04:18:33.855Z,11.07
2023-01-25T04:21:00.772Z,11.53
2023-01-25T04:23:27.638Z,11.63
2023-01-25T04:26:01.747Z,10.90
2023-01-25T04:28:28.856Z,11.77
2023-01-25T04:30:58.072Z,11.40
2023-01-25T04:33:25.259Z,12.10
2023-01-25T04:35:52.834Z,11.40
2023-01-25T04:38:20.084Z,10.80
2023-01-25T04:40:47.178Z,12.73
2023-01-25T04:43:15.801Z,11.23
2023-01-25T04:45:42.770Z,11.07
2023-01-25T04:48:11.503Z,12.10
2023-01-25T04:50:39.550Z,12.00
2023-01-25T04:53:07.707Z,12.50
2023-01-25T04:55:35.051Z,12.60
2023-01-25T04:58:02.883Z,11.67
2023-01-25T05:00:31.151Z,12.67
2023-01-25T05:02:58.217Z,12.63
2023-01-25T05:05:25.126Z,13.13
2023-01-25T05:07:52.021Z,12.07
2023-01-25T05:10:19.050Z,12.70
2023-01-25T05:12:45.957Z,12.60
2023-01-25T05:15:13.058Z,12.50
2023-01-25T05:17:40.035Z,11.50
2023-01-25T05:20:07.295Z,12.40
2023-01-25T05:22:34.165Z,11.70
2023-01-25T05:25:02.965Z,11.80
2023-01-25T05:27:29.827Z,13.30
2023-01-25T05:29:57.796Z,12.67
2023-01-25T05:32:25.140Z,12.97
2023-01-25T05:34:52.074Z,13.03
2023-01-25T05:37:20.647Z,12.77
2023-01-25T05:39:47.773Z,12.90
2023-01-25T05:42:17.053Z,12.73
2023-01-25T05:44:47.333Z,12.70
2023-01-25T05:47:16.737Z,12.60
2023-01-25T05:49:43.952Z,13.23
2023-01-25T05:52:19.690Z,13.00
2023-01-25T05:54:46.534Z,13.47
2023-01-25T05:57:14.505Z,13.63
2023-01-25T05:59:41.488Z,13.77
2023-01-25T06:02:08.534Z,13.83
2023-01-25T06:04:35.419Z,14.27
2023-01-25T06:07:02.292Z,13.53
2023-01-25T06:09:29.143Z,13.77
2023-01-25T06:11:56.004Z,14.90
2023-01-25T06:14:23.923Z,14.63
2023-01-25T06:16:50.825Z,13.80
2023-01-25T06:19:17.805Z,15.10
2023-01-25T06:21:44.650Z,15.27
2023-01-25T06:24:11.693Z,15.30
2023-01-25T06:26:38.951Z,15.83
2023-01-25T06:29:06.919Z,14.03
2023-01-25T06:31:35.036Z,13.93
2023-01-25T06:34:04.615Z,15.33
2023-01-25T06:36:31.576Z,15.83
2023-01-25T06:38:58.528Z,15.60
2023-01-25T06:41:25.552Z,15.93
2023-01-25T06:43:53.168Z,14.63
2023-01-25T06:46:20.499Z,14.37
2023-01-25T06:48:47.973Z,14.97
2023-01-25T06:51:15.730Z,16.13
2023-01-25T06:53:44.686Z,15.43
2023-01-25T06:56:17.873Z,14.10
2023-01-25T06:58:45.362Z,13.83
2023-01-25T07:01:21.343Z,14.50
2023-01-25T07:03:49.988Z,14.60
2023-01-25T07:06:17.059Z,14.90
2023-01-25T07:08:44.355Z,14.93
2023-01-25T07:11:14.023Z,15.23
2023-01-25T07:13:48.825Z,15.17
2023-01-25T07:16:20.504Z,16.97
2023-01-25T07:18:47.990Z,15.77
2023-01-25T07:21:20.524Z,16.37
2023-01-25T07:23:48.508Z,16.97
2023-01-25T07:26:21.640Z,16.47
2023-01-25T07:28:49.067Z,16.30
2023-01-25T07:31:17.757Z,16.47
2023-01-25T07:33:48.740Z,16.70
2023-01-25T07:36:16.071Z,18.53
2023-01-25T07:38:43.036Z,17.10
2023-01-25T07:41:09.964Z,17.80
2023-01-25T07:43:37.093Z,16.77
2023-01-25T07:46:06.650Z,18.10
2023-01-25T07:48:33.728Z,17.80
2023-01-25T07:51:20.750Z,16.27
2023-01-25T07:53:47.993Z,16.77
2023-01-25T07:56:14.978Z,16.53
2023-01-25T07:58:41.890Z,18.40
2023-01-25T08:01:09.680Z,16.80
2023-01-25T08:03:37.150Z,18.93
2023-01-25T08:06:05.379Z,17.37
2023-01-25T08:08:34.733Z,17.13
2023-01-25T08:11:08.699Z,17.47
2023-01-25T08:13:35.719Z,16.70
2023-01-25T08:16:02.618Z,17.43
2023-01-25T08:18:29.511Z,17.00
2023-01-25T08:20:59.425Z,17.57
2023-01-25T08:23:27.167Z,17.60
2023-01-25T08:25:54.093Z,17.90
2023-01-25T08:28:20.975Z,16.10
2023-01-25T08:30:56.842Z,16.93
2023-01-25T08:33:24.504Z,16.00
2023-01-25T08:35:57.629Z,17.43
2023-01-25T08:38:24.593Z,16.90
2023-01-25T08:40:51.913Z,17.17
2023-01-25T08:43:18.804Z,15.90
2023-01-25T08:45:45.995Z,16.40
2023-01-25T08:48:15.687Z,15.93
2023-01-25T08:50:47.429Z,15.70
2023-01-25T08:53:14.559Z,16.77
2023-01-25T08:55:43.108Z,17.37
2023-01-25T08:58:14.098Z,16.87
2023-01-25T09:00:41.752Z,16.20
2023-01-25T09:03:09.079Z,14.90
2023-01-25T09:05:37.014Z,16.10
2023-01-25T09:08:06.870Z,15.77
2023-01-25T09:10:34.896Z,15.07
2023-01-25T09:13:02.003Z,16.20
2023-01-25T09:15:29.137Z,15.33
2023-01-25T09:17:56.854Z,15.10
2023-01-25T09:20:24.591Z,14.53
2023-01-25T09:22:51.472Z,14.53
2023-01-25T09:25:18.402Z,14.60
2023-01-25T09:27:45.285Z,14.37
2023-01-25T09:30:18.231Z,14.83
2023-01-25T09:32:48.640Z,13.97
2023-01-25T09:35:15.569Z,13.67
2023-01-25T09:37:42.431Z,14.90
2023-01-25T09:40:22.738Z,14.60
2023-01-25T09:43:07.298Z,14.47
2023-01-25T09:45:36.325Z,14.87
2023-01-25T09:48:42.168Z,13.80
2023-01-25T09:51:27.461Z,15.13
2023-01-25T09:53:56.580Z,13.03
2023-01-25T09:56:32.985Z,14.00
2023-01-25T09:59:09.791Z,14.50
2023-01-25T10:01:54.158Z,14.50
2023-01-25T10:04:30.641Z,14.97
2023-01-25T10:07:03.907Z,14.33
2023-01-25T10:09:37.307Z,13.87
2023-01-25T10:12:18.906Z,14.57
2023-01-25T10:14:46.346Z,13.07
2023-01-25T10:17:33.480Z,13.87
2023-01-25T10:20:49.489Z,12.73
2023-01-25T10:23:46.737Z,13.83
2023-01-25T10:26:18.868Z,13.80
2023-01-25T10:29:10.416Z,14.40
2023-01-25T10:31:37.227Z,12.57
2023-01-25T10:34:35.482Z,13.37
2023-01-25T10:37:15.325Z,13.90
2023-01-25T10:40:06.634Z,14.20
2023-01-25T10:42:53.644Z,14.60
2023-01-25T10:45:20.659Z,14.57
2023-01-25T10:47:57.326Z,14.60
2023-01-25T10:50:42.401Z,13.50
2023-01-25T10:53:44.973Z,12.67
2023-01-25T10:56:25.995Z,11.00
2023-01-25T10:59:05.488Z,10.63
2023-01-25T11:01:35.859Z,11.57
2023-01-25T11:04:03.634Z,12.57
2023-01-25T11:06:34.971Z,12.50
2023-01-25T11:09:22.841Z,13.40
2023-01-25T11:12:17.598Z,13.30
2023-01-25T11:14:45.347Z,12.17
2023-01-25T11:17:30.470Z,13.40
2023-01-25T11:20:19.469Z,12.90
2023-01-25T11:22:54.157Z,13.13
2023-01-25T11:25:35.459Z,13.37
2023-01-25T11:28:11.547Z,12.73
2023-01-25T11:30:39.010Z,12.53
2023-01-25T11:33:14.032Z,12.07
2023-01-25T11:36:07.211Z,12.83
2023-01-25T11:38:34.177Z,12.67
2023-01-25T11:41:25.233Z,12.27
2023-01-25T11:44:13.733Z,11.40
2023-01-25T11:46:57.108Z,11.03
2023-01-25T11:49:34.764Z,11.40
2023-01-25T11:52:22.082Z,11.93
2023-01-25T11:54:52.625Z,11.20
2023-01-25T11:57:34.854Z,10.50
2023-01-25T12:00:07.876Z,12.23
2023-01-25T12:03:02.073Z,11.67
2023-01-25T12:05:44.813Z,11.70
2023-01-25T12:08:23.917Z,12.20
2023-01-25T12:11:18.580Z,12.93
2023-01-25T12:14:05.080Z,12.40
2023-01-25T12:17:22.239Z,12.23
2023-01-25T12:19:58.654Z,12.00
2023-01-25T12:22:42.360Z,12.10
2023-01-25T12:25:41.031Z,13.30
2023-01-25T12:28:20.668Z,11.63
2023-01-25T12:31:14.736Z,11.97
2023-01-25T12:34:09.041Z,12.50
2023-01-25T12:36:43.369Z,13.23
2023-01-25T12:39:24.876Z,13.60
2023-01-25T12:42:04.295Z,12.30
2023-01-25T12:44:59.225Z,13.90
2023-01-25T12:47:41.999Z,13.93
2023-01-25T12:50:17.680Z,14.40
2023-01-25T12:52:55.996Z,13.30
2023-01-25T12:55:22.941Z,14.47
2023-01-25T12:58:04.669Z,23.60
2023-01-25T13:00:53.222Z,20.83
2023-01-25T13:03:38.069Z,15.87
2023-01-25T13:06:04.892Z,14.10
2023-01-25T13:08:56.242Z,13.97
2023-01-25T13:11:31.703Z,13.17
2023-01-25T13:14:23.739Z,12.70
2023-01-25T13:17:01.427Z,12.37
2023-01-25T13:19:31.797Z,12.13
2023-01-25T13:22:00.103Z,12.17
2023-01-25T13:24:34.911Z,12.80
2023-01-25T13:27:23.396Z,13.10
2023-01-25T13:29:56.824Z,13.73
2023-01-25T13:32:29.449Z,12.70
2023-01-25T13:34:58.946Z,13.40
2023-01-25T13:37:31.639Z,12.30
2023-01-25T13:40:06.044Z,13.10
2023-01-25T13:42:35.275Z,12.23
2023-01-25T13:45:21.319Z,11.40
2023-01-25T13:48:06.192Z,12.70
2023-01-25T13:51:04.575Z,11.90
2023-01-25T13:53:35.372Z,12.13
2023-01-25T13:56:03.609Z,12.73
2023-01-25T13:58:36.576Z,11.53
2023-01-25T14:01:15.556Z,12.60
2023-01-25T14:03:51.767Z,12.03
2023-01-25T14:06:28.038Z,11.33
2023-01-25T14:08:58.249Z,12.97
2023-01-25T14:11:30.966Z,12.30
2023-01-25T14:14:16.604Z,13.40
2023-01-25T14:16:44.258Z,13.17
2023-01-25T14:19:29.978Z,13.13
2023-01-25T14:22:15.631Z,14.20
2023-01-25T14:24:42.477Z,13.33
2023-01-25T14:27:14.512Z,13.53
2023-01-25T14:29:41.970Z,12.43
2023-01-25T14:32:18.169Z,14.37
2023-01-25T14:34:45.075Z,13.43
2023-01-25T14:37:20.965Z,13.63
2023-01-25T14:39:49.896Z,12.60
2023-01-25T14:42:18.114Z,12.40
2023-01-25T14:44:45.415Z,13.63
2023-01-25T14:47:24.079Z,14.43
2023-01-25T14:49:50.983Z,26.33
2023-01-25T14:52:20.002Z,14.60
2023-01-25T14:55:00.187Z,13.40
2023-01-25T14:57:41.843Z,13.87
2023-01-25T15:00:17.764Z,12.57
2023-01-25T15:02:55.185Z,12.47
2023-01-25T15:05:27.783Z,12.50
2023-01-25T15:08:07.773Z,13.83
2023-01-25T15:10:37.267Z,14.97
2023-01-25T15:13:13.610Z,12.73
2023-01-25T15:15:58.034Z,13.70
2023-01-25T15:18:43.909Z,13.90
2023-01-25T15:21:24.108Z,13.47
2023-01-25T15:23:53.618Z,13.93
2023-01-25T15:26:22.665Z,13.60
2023-01-25T15:28:51.332Z,13.27
2023-01-25T15:31:22.840Z,13.77
2023-01-25T15:33:49.805Z,12.87
2023-01-25T15:36:17.851Z,14.37
2023-01-25T15:38:45.326Z,13.30
2023-01-25T15:41:13.806Z,15.00
2023-01-25T15:43:40.936Z,14.33
2023-01-25T15:46:19.363Z,14.13
2023-01-25T15:48:48.331Z,16.07
2023-01-25T15:51:15.877Z,14.70
2023-01-25T15:53:42.821Z,14.33
2023-01-25T15:56:21.862Z,14.77
2023-01-25T15:58:53.947Z,16.37
2023-01-25T16:01:22.389Z,14.33
2023-01-25T16:03:49.348Z,15.23
2023-01-25T16:06:25.456Z,15.77
2023-01-25T16:08:52.388Z,14.40
2023-01-25T16:11:19.239Z,14.50
2023-01-25T16:13:46.093Z,15.30
2023-01-25T16:16:19.316Z,15.93
2023-01-25T16:18:46.731Z,15.63
2023-01-25T16:21:14.036Z,16.23
2023-01-25T16:23:41.279Z,14.77
2023-01-25T16:26:16.417Z,15.30
2023-01-25T16:28:43.318Z,14.80
2023-01-25T16:31:30.254Z,16.73
2023-01-25T16:33:59.199Z,16.10
2023-01-25T16:36:26.202Z,18.27
2023-01-25T16:38:53.248Z,16.80
2023-01-25T16:41:20.263Z,16.57
2023-01-25T16:43:48.645Z,15.70
2023-01-25T16:46:23.450Z,15.47
2023-01-25T16:48:52.495Z,14.17
2023-01-25T16:51:22.558Z,15.33
2023-01-25T16:53:51.580Z,15.60
2023-01-25T16:56:23.709Z,15.77
2023-01-25T16:58:52.040Z,15.13
2023-01-25T17:01:20.395Z,15.23
2023-01-25T17:03:47.766Z,15.60
2023-01-25T17:06:20.181Z,15.07
2023-01-25T17:08:48.369Z,15.70
2023-01-25T17:11:18.845Z,14.43
2023-01-25T17:13:53.630Z,14.27
2023-01-25T17:16:21.668Z,13.50
2023-01-25T17:18:53.492Z,13.60
2023-01-25T17:21:21.224Z,13.83
2023-01-25T17:23:48.435Z,13.77
2023-01-25T17:26:17.874Z,13.50
2023-01-25T17:28:44.824Z,15.13
2023-01-25T17:31:26.281Z,14.70
2023-01-25T17:33:54.015Z,14.97
2023-01-25T17:36:21.205Z,14.47
2023-01-25T17:38:48.257Z,14.10
2023-01-25T17:41:17.188Z,13.97
2023-01-25T17:43:44.188Z,15.20
2023-01-25T17:46:22.066Z,15.03
2023-01-25T17:48:49.119Z,14.90
2023-01-25T17:51:16.035Z,15.13
2023-01-25T17:53:42.926Z,14.53
2023-01-25T17:56:12.449Z,14.20
2023-01-25T17:58:40.503Z,15.07
2023-01-25T18:01:15.685Z,14.93
2023-01-25T18:03:43.944Z,14.93
2023-01-25T18:06:18.504Z,15.97
2023-01-25T18:08:49.308Z,14.63
2023-01-25T18:11:19.461Z,13.73
2023-01-25T18:13:48.430Z,14.30
2023-01-25T18:16:16.235Z,14.67
2023-01-25T18:18:44.700Z,16.43
2023-01-25T18:21:22.046Z,15.30
2023-01-25T18:23:49.092Z,16.60
2023-01-25T18:26:37.010Z,19.37
2023-01-25T18:29:09.984Z,17.60
2023-01-25T18:31:37.342Z,15.50
2023-01-25T18:34:04.526Z,17.00
2023-01-25T18:36:31.390Z,15.73
2023-01-25T18:39:00.024Z,18.23
2023-01-25T18:41:27.161Z,17.97
2023-01-25T18:43:56.813Z,16.80
2023-01-25T18:46:23.875Z,15.93
2023-01-25T18:48:51.254Z,17.33
2023-01-25T18:51:18.154Z,16.63
2023-01-25T18:53:47.656Z,15.97
2023-01-25T18:56:20.716Z,16.50
2023-01-25T18:58:48.686Z,15.90
2023-01-25T19:01:18.439Z,17.70
2023-01-25T19:03:46.944Z,17.50
2023-01-25T19:06:15.162Z,16.83
2023-01-25T19:08:44.361Z,17.97
2023-01-25T19:11:14.139Z,17.60
2023-01-25T19:13:42.416Z,19.07
2023-01-25T19:16:17.810Z,16.70
2023-01-25T19:18:47.543Z,17.83
2023-01-25T19:21:19.737Z,16.30
2023-01-25T19:23:47.584Z,15.63
2023-01-25T19:26:17.378Z,16.50
2023-01-25T19:28:44.673Z,19.87
2023-01-25T19:31:18.294Z,17.70
2023-01-25T19:33:46.158Z,16.27
2023-01-25T19:36:16.728Z,16.93
2023-01-25T19:38:44.899Z,17.43
2023-01-25T19:41:14.506Z,16.77
2023-01-25T19:43:42.032Z,17.60
2023-01-25T19:46:14.277Z,17.33
2023-01-25T19:48:42.238Z,17.67
2023-01-25T19:51:14.993Z,17.27
2023-01-25T19:53:47.530Z,15.50
2023-01-25T19:56:16.411Z,18.00
2023-01-25T19:58:48.558Z,16.93
2023-01-25T20:01:29.174Z,18.70
2023-01-25T20:04:01.019Z,16.30
2023-01-25T20:06:28.422Z,17.90
2023-01-25T20:08:55.365Z,18.07
2023-01-25T20:11:27.589Z,17.77
2023-01-25T20:13:58.801Z,18.30
2023-01-25T20:16:27.483Z,17.60
2023-01-25T20:18:56.308Z,16.87
2023-01-25T20:21:24.492Z,16.47
2023-01-25T20:23:56.151Z,17.30
2023-01-25T20:26:25.768Z,16.33
2023-01-25T20:28:55.419Z,16.40
2023-01-25T20:31:23.831Z,17.20
2023-01-25T20:33:53.079Z,16.00
2023-01-25T20:36:20.328Z,16.90
2023-01-25T20:38:47.334Z,17.30
2023-01-25T20:41:15.769Z,15.70
2023-01-25T20:43:50.654Z,16.90
2023-01-25T20:46:18.829Z,16.93
2023-01-25T20:48:46.343Z,18.57
2023-01-25T20:51:16.986Z,15.50
2023-01-25T20:53:45.740Z,18.07
2023-01-25T20:56:14.364Z,15.87
2023-01-25T20:58:41.964Z,17.03
2023-01-25T21:01:20.320Z,18.83
2023-01-25T21:03:48.216Z,17.50
2023-01-25T21:06:16.203Z,17.63
2023-01-25T21:08:43.560Z,24.80
2023-01-25T21:11:11.768Z,19.87
2023-01-25T21:13:38.923Z,18.43
2023-01-25T21:16:07.703Z,17.63
2023-01-25T21:18:43.008Z,17.67
2023-01-25T21:21:21.180Z,18.00
2023-01-25T21:23:50.060Z,18.20
2023-01-25T21:26:26.579Z,18.47
2023-01-25T21:28:56.874Z,19.30
2023-01-25T21:31:35.226Z,17.30
2023-01-25T21:34:03.236Z,17.10
2023-01-25T21:36:30.376Z,16.93
2023-01-25T21:38:58.196Z,17.80
2023-01-25T21:41:30.827Z,17.63
2023-01-25T21:44:18.060Z,18.03
2023-01-25T21:47:04.157Z,17.60
2023-01-25T21:49:51.286Z,17.13
2023-01-25T21:52:18.136Z,17.20
2023-01-25T21:54:44.977Z,19.90
2023-01-25T21:57:11.877Z,18.80
2023-01-25T21:59:40.881Z,18.27
2023-01-25T22:02:13.218Z,20.93
2023-01-25T22:04:40.363Z,18.60
2023-01-25T22:07:08.824Z,17.40
2023-01-25T22:09:36.294Z,18.90
2023-01-25T22:12:03.231Z,19.50
2023-01-25T22:14:30.192Z,18.27
2023-01-25T22:16:57.165Z,19.03
2023-01-25T22:19:24.383Z,18.23
2023-01-25T22:21:51.219Z,19.60
2023-01-25T22:24:18.249Z,18.10
2023-01-25T22:26:53.886Z,17.63
2023-01-25T22:29:20.772Z,18.10
2023-01-25T22:31:47.676Z,18.00
2023-01-25T22:34:14.560Z,16.83
2023-01-25T22:36:41.456Z,17.90
2023-01-25T22:39:09.778Z,17.63
2023-01-25T22:41:37.736Z,17.57
2023-01-25T22:44:05.075Z,18.03
2023-01-25T22:46:32.397Z,17.70
2023-01-25T22:48:59.612Z,18.47
2023-01-25T22:51:28.946Z,16.03
2023-01-25T22:53:57.519Z,17.27
2023-01-25T22:56:27.279Z,17.70
2023-01-25T22:58:54.234Z,16.40
2023-01-25T23:01:22.094Z,17.60
2023-01-25T23:03:49.999Z,18.07
2023-01-25T23:06:19.557Z,17.13
2023-01-25T23:08:47.166Z,17.87
2023-01-25T23:11:15.451Z,17.23
2023-01-25T23:14:03.413Z,17.80
2023-01-25T23:16:30.831Z,17.60
2023-01-25T23:18:57.907Z,18.40
2023-01-25T23:21:30.017Z,18.27
2023-01-25T23:24:00.995Z,16.83
2023-01-25T23:26:29.826Z,17.70
2023-01-25T23:28:57.998Z,17.23
2023-01-25T23:31:26.289Z,16.90
2023-01-25T23:33:59.160Z,17.27
2023-01-25T23:36:28.753Z,17.73
2023-01-25T23:38:56.969Z,18.80
2023-01-25T23:41:29.089Z,16.70
2023-01-25T23:43:57.880Z,18.87
2023-01-25T23:46:25.671Z,17.70
2023-01-25T23:48:53.397Z,18.03
2023-01-25T23:51:20.715Z,16.83
2023-01-25T23:53:48.322Z,17.43
2023-01-25T23:56:20.325Z,18.10
2023-01-25T23:58:47.863Z,18.60
